sensor_id;sensor_type;location;lat;lon;timestamp;temperature;humidity
44705;DHT22;30431;48.520;9.046;2023-04-21T00:00:33;5.10;99.90
44705;DHT22;30431;48.520;9.046;2023-04-21T00:03:05;5.00;99.90
44705;DHT22;30431;48.520;9.046;2023-04-21T00:05:32;4.90;99.90
44705;DHT22;30431;48.520;9.046;2023-04-21T00:07:59;4.90;99.90
44705;DHT22;30431;48.520;9.046;2023-04-21T00:10:26;4.80;99.90
44705;DHT22;30431;48.520;9.046;2023-04-21T00:12:55;4.70;99.90
44705;DHT22;30431;48.520;9.046;2023-04-21T00:15:22;4.70;99.90
44705;DHT22;30431;48.520;9.046;2023-04-21T00:17:51;4.60;99.90
44705;DHT22;30431;48.520;9.046;2023-04-21T00:20:20;4.60;99.90
44705;DHT22;30431;48.520;9.046;2023-04-21T00:22:48;4.60;99.90
44705;DHT22;30431;48.520;9.046;2023-04-21T00:25:16;4.60;99.90
44705;DHT22;30431;48.520;9.046;2023-04-21T00:27:43;4.60;99.90
44705;DHT22;30431;48.520;9.046;2023-04-21T00:30:10;4.50;99.90
44705;DHT22;30431;48.520;9.046;2023-04-21T00:32:37;4.50;99.90
44705;DHT22;30431;48.520;9.046;2023-04-21T00:35:04;4.50;99.90
44705;DHT22;30431;48.520;9.046;2023-04-21T00:37:36;4.40;99.90
44705;DHT22;30431;48.520;9.046;2023-04-21T00:40:03;4.40;99.90
44705;DHT22;30431;48.520;9.046;2023-04-21T00:42:33;4.30;99.90
44705;DHT22;30431;48.520;9.046;2023-04-21T00:45:00;4.20;99.90
44705;DHT22;30431;48.520;9.046;2023-04-21T00:47:29;4.20;99.90
44705;DHT22;30431;48.520;9.046;2023-04-21T00:49:57;4.10;99.90
44705;DHT22;30431;48.520;9.046;2023-04-21T00:52:24;4.00;99.90
44705;DHT22;30431;48.520;9.046;2023-04-21T00:54:54;3.90;99.90
44705;DHT22;30431;48.520;9.046;2023-04-21T00:57:23;3.80;99.90
44705;DHT22;30431;48.520;9.046;2023-04-21T00:59:52;3.80;99.90
44705;DHT22;30431;48.520;9.046;2023-04-21T01:02:25;3.80;99.90
44705;DHT22;30431;48.520;9.046;2023-04-21T01:04:56;3.70;99.90
44705;DHT22;30431;48.520;9.046;2023-04-21T01:07:24;3.60;99.90
44705;DHT22;30431;48.520;9.046;2023-04-21T01:09:51;3.60;99.90
44705;DHT22;30431;48.520;9.046;2023-04-21T01:12:18;3.60;99.90
44705;DHT22;30431;48.520;9.046;2023-04-21T01:14:50;3.50;99.90
44705;DHT22;30431;48.520;9.046;2023-04-21T01:17:32;3.40;99.90
44705;DHT22;30431;48.520;9.046;2023-04-21T01:20:06;3.30;99.90
44705;DHT22;30431;48.520;9.046;2023-04-21T01:22:36;3.30;99.90
44705;DHT22;30431;48.520;9.046;2023-04-21T01:25:03;3.20;99.90
44705;DHT22;30431;48.520;9.046;2023-04-21T01:27:30;3.10;99.90
44705;DHT22;30431;48.520;9.046;2023-04-21T01:29:59;3.10;99.90
44705;DHT22;30431;48.520;9.046;2023-04-21T01:32:27;3.00;99.90
44705;DHT22;30431;48.520;9.046;2023-04-21T01:34:56;2.90;99.90
44705;DHT22;30431;48.520;9.046;2023-04-21T01:37:28;2.90;99.90
44705;DHT22;30431;48.520;9.046;2023-04-21T01:39:56;2.90;99.90
44705;DHT22;30431;48.520;9.046;2023-04-21T01:42:25;2.90;99.90
44705;DHT22;30431;48.520;9.046;2023-04-21T01:44:52;2.90;99.90
44705;DHT22;30431;48.520;9.046;2023-04-21T01:47:19;2.90;99.90
44705;DHT22;30431;48.520;9.046;2023-04-21T01:49:49;3.00;99.90
44705;DHT22;30431;48.520;9.046;2023-04-21T01:52:18;3.00;99.90
44705;DHT22;30431;48.520;9.046;2023-04-21T01:54:47;3.10;99.90
44705;DHT22;30431;48.520;9.046;2023-04-21T01:57:14;3.10;99.90
44705;DHT22;30431;48.520;9.046;2023-04-21T01:59:42;3.10;99.90
44705;DHT22;30431;48.520;9.046;2023-04-21T02:02:12;3.10;99.90
44705;DHT22;30431;48.520;9.046;2023-04-21T02:04:39;3.10;99.90
44705;DHT22;30431;48.520;9.046;2023-04-21T02:07:09;3.20;99.90
44705;DHT22;30431;48.520;9.046;2023-04-21T02:09:41;3.30;99.90
44705;DHT22;30431;48.520;9.046;2023-04-21T02:12:08;3.40;99.90
44705;DHT22;30431;48.520;9.046;2023-04-21T02:14:35;3.50;99.90
44705;DHT22;30431;48.520;9.046;2023-04-21T02:17:08;3.50;99.90
44705;DHT22;30431;48.520;9.046;2023-04-21T02:19:35;3.60;99.90
44705;DHT22;30431;48.520;9.046;2023-04-21T02:22:05;3.70;99.90
44705;DHT22;30431;48.520;9.046;2023-04-21T02:24:33;3.80;99.90
44705;DHT22;30431;48.520;9.046;2023-04-21T02:27:01;3.90;99.90
44705;DHT22;30431;48.520;9.046;2023-04-21T02:29:28;4.00;99.90
44705;DHT22;30431;48.520;9.046;2023-04-21T02:31:55;4.10;99.90
44705;DHT22;30431;48.520;9.046;2023-04-21T02:34:36;4.00;99.90
44705;DHT22;30431;48.520;9.046;2023-04-21T02:37:05;4.00;99.90
44705;DHT22;30431;48.520;9.046;2023-04-21T02:39:32;4.10;99.90
44705;DHT22;30431;48.520;9.046;2023-04-21T02:42:04;4.10;99.90
44705;DHT22;30431;48.520;9.046;2023-04-21T02:44:31;4.00;99.90
44705;DHT22;30431;48.520;9.046;2023-04-21T02:46:58;4.10;99.90
44705;DHT22;30431;48.520;9.046;2023-04-21T02:49:26;4.00;99.90
44705;DHT22;30431;48.520;9.046;2023-04-21T02:51:56;4.00;99.90
44705;DHT22;30431;48.520;9.046;2023-04-21T02:54:49;4.00;99.90
44705;DHT22;30431;48.520;9.046;2023-04-21T02:57:16;4.10;99.90
44705;DHT22;30431;48.520;9.046;2023-04-21T02:59:45;4.00;99.90
44705;DHT22;30431;48.520;9.046;2023-04-21T03:02:12;4.00;99.90
44705;DHT22;30431;48.520;9.046;2023-04-21T03:04:39;4.10;99.90
44705;DHT22;30431;48.520;9.046;2023-04-21T03:07:10;4.20;99.90
44705;DHT22;30431;48.520;9.046;2023-04-21T03:09:38;4.10;99.90
44705;DHT22;30431;48.520;9.046;2023-04-21T03:12:07;4.00;99.90
44705;DHT22;30431;48.520;9.046;2023-04-21T03:14:34;4.00;99.90
44705;DHT22;30431;48.520;9.046;2023-04-21T03:17:04;4.10;99.90
44705;DHT22;30431;48.520;9.046;2023-04-21T03:19:31;4.10;99.90
44705;DHT22;30431;48.520;9.046;2023-04-21T03:22:00;4.20;99.90
44705;DHT22;30431;48.520;9.046;2023-04-21T03:24:27;4.20;99.90
44705;DHT22;30431;48.520;9.046;2023-04-21T03:27:00;4.30;99.90
44705;DHT22;30431;48.520;9.046;2023-04-21T03:29:28;4.30;99.90
44705;DHT22;30431;48.520;9.046;2023-04-21T03:31:54;4.30;99.90
44705;DHT22;30431;48.520;9.046;2023-04-21T03:34:22;4.20;99.90
44705;DHT22;30431;48.520;9.046;2023-04-21T03:36:54;4.20;99.90
44705;DHT22;30431;48.520;9.046;2023-04-21T03:39:21;4.30;99.90
44705;DHT22;30431;48.520;9.046;2023-04-21T03:41:50;4.30;99.90
44705;DHT22;30431;48.520;9.046;2023-04-21T03:44:19;4.30;99.90
44705;DHT22;30431;48.520;9.046;2023-04-21T03:46:46;4.30;99.90
44705;DHT22;30431;48.520;9.046;2023-04-21T03:49:15;4.30;99.90
44705;DHT22;30431;48.520;9.046;2023-04-21T03:51:45;4.40;99.90
44705;DHT22;30431;48.520;9.046;2023-04-21T03:54:12;4.30;99.90
44705;DHT22;30431;48.520;9.046;2023-04-21T03:56:39;4.30;99.90
44705;DHT22;30431;48.520;9.046;2023-04-21T03:59:06;4.40;99.90
44705;DHT22;30431;48.520;9.046;2023-04-21T04:01:33;4.20;99.90
44705;DHT22;30431;48.520;9.046;2023-04-21T04:04:00;4.20;99.90
44705;DHT22;30431;48.520;9.046;2023-04-21T04:06:29;4.20;99.90
44705;DHT22;30431;48.520;9.046;2023-04-21T04:08:58;4.30;99.90
44705;DHT22;30431;48.520;9.046;2023-04-21T04:11:25;4.40;99.90
44705;DHT22;30431;48.520;9.046;2023-04-21T04:13:54;4.40;99.90
44705;DHT22;30431;48.520;9.046;2023-04-21T04:16:21;4.40;99.90
44705;DHT22;30431;48.520;9.046;2023-04-21T04:18:48;4.40;99.90
44705;DHT22;30431;48.520;9.046;2023-04-21T04:21:22;4.40;99.90
44705;DHT22;30431;48.520;9.046;2023-04-21T04:23:52;4.50;99.90
44705;DHT22;30431;48.520;9.046;2023-04-21T04:26:19;4.50;99.90
44705;DHT22;30431;48.520;9.046;2023-04-21T04:28:50;4.50;99.90
44705;DHT22;30431;48.520;9.046;2023-04-21T04:31:18;4.40;99.90
44705;DHT22;30431;48.520;9.046;2023-04-21T04:33:45;4.40;99.90
44705;DHT22;30431;48.520;9.046;2023-04-21T04:36:15;4.40;99.90
44705;DHT22;30431;48.520;9.046;2023-04-21T04:38:44;4.50;99.90
44705;DHT22;30431;48.520;9.046;2023-04-21T04:41:11;4.50;99.90
44705;DHT22;30431;48.520;9.046;2023-04-21T04:43:38;4.60;99.90
44705;DHT22;30431;48.520;9.046;2023-04-21T04:46:05;4.60;99.90
44705;DHT22;30431;48.520;9.046;2023-04-21T04:48:34;4.60;99.90
44705;DHT22;30431;48.520;9.046;2023-04-21T04:51:01;4.70;99.90
44705;DHT22;30431;48.520;9.046;2023-04-21T04:53:28;4.70;99.90
44705;DHT22;30431;48.520;9.046;2023-04-21T04:55:56;4.70;99.90
44705;DHT22;30431;48.520;9.046;2023-04-21T04:58:26;4.70;99.90
44705;DHT22;30431;48.520;9.046;2023-04-21T05:00:55;4.70;99.90
44705;DHT22;30431;48.520;9.046;2023-04-21T05:03:22;4.70;99.90
44705;DHT22;30431;48.520;9.046;2023-04-21T05:05:49;4.80;99.90
44705;DHT22;30431;48.520;9.046;2023-04-21T05:11:09;4.90;99.90
44705;DHT22;30431;48.520;9.046;2023-04-21T05:13:38;5.10;99.90
44705;DHT22;30431;48.520;9.046;2023-04-21T05:16:06;5.20;99.90
44705;DHT22;30431;48.520;9.046;2023-04-21T05:18:35;5.10;99.90
44705;DHT22;30431;48.520;9.046;2023-04-21T05:21:03;5.20;99.90
44705;DHT22;30431;48.520;9.046;2023-04-21T05:23:30;5.00;99.90
44705;DHT22;30431;48.520;9.046;2023-04-21T05:25:57;5.00;99.90
44705;DHT22;30431;48.520;9.046;2023-04-21T05:28:29;4.60;99.90
44705;DHT22;30431;48.520;9.046;2023-04-21T05:30:57;4.50;99.90
44705;DHT22;30431;48.520;9.046;2023-04-21T05:33:27;4.50;99.90
44705;DHT22;30431;48.520;9.046;2023-04-21T05:35:59;4.30;99.90
44705;DHT22;30431;48.520;9.046;2023-04-21T05:38:26;4.60;99.90
44705;DHT22;30431;48.520;9.046;2023-04-21T05:40:55;4.80;99.90
44705;DHT22;30431;48.520;9.046;2023-04-21T05:43:22;4.50;99.90
44705;DHT22;30431;48.520;9.046;2023-04-21T05:45:49;4.50;99.90
44705;DHT22;30431;48.520;9.046;2023-04-21T05:48:17;4.60;99.90
44705;DHT22;30431;48.520;9.046;2023-04-21T05:50:44;4.80;99.90
44705;DHT22;30431;48.520;9.046;2023-04-21T05:53:11;4.80;99.90
44705;DHT22;30431;48.520;9.046;2023-04-21T05:55:39;4.70;99.90
44705;DHT22;30431;48.520;9.046;2023-04-21T05:58:09;4.80;99.90
44705;DHT22;30431;48.520;9.046;2023-04-21T06:00:36;4.90;99.90
44705;DHT22;30431;48.520;9.046;2023-04-21T06:03:02;5.00;99.90
44705;DHT22;30431;48.520;9.046;2023-04-21T06:05:32;5.00;99.90
44705;DHT22;30431;48.520;9.046;2023-04-21T06:07:59;5.10;99.90
44705;DHT22;30431;48.520;9.046;2023-04-21T06:10:26;5.20;99.90
44705;DHT22;30431;48.520;9.046;2023-04-21T06:12:53;5.30;99.90
44705;DHT22;30431;48.520;9.046;2023-04-21T06:15:19;5.60;99.90
44705;DHT22;30431;48.520;9.046;2023-04-21T06:17:52;5.70;99.90
44705;DHT22;30431;48.520;9.046;2023-04-21T06:20:20;5.60;99.90
44705;DHT22;30431;48.520;9.046;2023-04-21T06:22:46;5.60;99.90
44705;DHT22;30431;48.520;9.046;2023-04-21T06:25:13;5.40;99.90
44705;DHT22;30431;48.520;9.046;2023-04-21T06:27:43;5.20;99.90
44705;DHT22;30431;48.520;9.046;2023-04-21T06:30:11;5.30;99.90
44705;DHT22;30431;48.520;9.046;2023-04-21T06:32:38;5.60;99.90
44705;DHT22;30431;48.520;9.046;2023-04-21T06:35:05;6.00;99.90
44705;DHT22;30431;48.520;9.046;2023-04-21T06:37:34;6.00;99.90
44705;DHT22;30431;48.520;9.046;2023-04-21T06:40:02;5.90;99.90
44705;DHT22;30431;48.520;9.046;2023-04-21T06:42:29;6.00;99.90
44705;DHT22;30431;48.520;9.046;2023-04-21T06:44:56;6.00;99.90
44705;DHT22;30431;48.520;9.046;2023-04-21T06:47:23;6.00;99.90
44705;DHT22;30431;48.520;9.046;2023-04-21T06:49:50;6.10;99.90
44705;DHT22;30431;48.520;9.046;2023-04-21T06:52:17;6.50;99.90
44705;DHT22;30431;48.520;9.046;2023-04-21T06:54:48;6.90;99.90
44705;DHT22;30431;48.520;9.046;2023-04-21T06:57:15;6.70;99.90
44705;DHT22;30431;48.520;9.046;2023-04-21T06:59:42;6.80;99.90
44705;DHT22;30431;48.520;9.046;2023-04-21T07:02:10;7.10;99.90
44705;DHT22;30431;48.520;9.046;2023-04-21T07:04:37;7.20;99.90
44705;DHT22;30431;48.520;9.046;2023-04-21T07:07:04;6.60;99.90
44705;DHT22;30431;48.520;9.046;2023-04-21T07:09:31;6.50;99.90
44705;DHT22;30431;48.520;9.046;2023-04-21T07:11:59;6.50;99.90
44705;DHT22;30431;48.520;9.046;2023-04-21T07:14:28;6.50;99.90
44705;DHT22;30431;48.520;9.046;2023-04-21T07:16:55;6.60;99.90
44705;DHT22;30431;48.520;9.046;2023-04-21T07:19:23;6.90;99.90
44705;DHT22;30431;48.520;9.046;2023-04-21T07:21:50;7.30;99.90
44705;DHT22;30431;48.520;9.046;2023-04-21T07:24:20;7.40;99.90
44705;DHT22;30431;48.520;9.046;2023-04-21T07:26:47;7.70;99.90
44705;DHT22;30431;48.520;9.046;2023-04-21T07:29:16;7.30;99.90
44705;DHT22;30431;48.520;9.046;2023-04-21T07:31:46;7.00;99.90
44705;DHT22;30431;48.520;9.046;2023-04-21T07:34:14;7.30;99.90
44705;DHT22;30431;48.520;9.046;2023-04-21T07:36:41;7.80;99.90
44705;DHT22;30431;48.520;9.046;2023-04-21T07:39:07;8.20;99.90
44705;DHT22;30431;48.520;9.046;2023-04-21T07:41:37;7.50;99.90
44705;DHT22;30431;48.520;9.046;2023-04-21T07:44:03;7.70;99.90
44705;DHT22;30431;48.520;9.046;2023-04-21T07:46:31;8.20;99.90
44705;DHT22;30431;48.520;9.046;2023-04-21T07:49:00;8.30;99.90
44705;DHT22;30431;48.520;9.046;2023-04-21T07:51:32;8.30;99.90
44705;DHT22;30431;48.520;9.046;2023-04-21T07:53:59;8.60;99.90
44705;DHT22;30431;48.520;9.046;2023-04-21T07:56:26;9.00;99.90
44705;DHT22;30431;48.520;9.046;2023-04-21T07:58:53;9.00;99.90
44705;DHT22;30431;48.520;9.046;2023-04-21T08:01:20;9.30;99.90
44705;DHT22;30431;48.520;9.046;2023-04-21T08:03:48;9.50;99.90
44705;DHT22;30431;48.520;9.046;2023-04-21T08:06:15;9.30;99.90
44705;DHT22;30431;48.520;9.046;2023-04-21T08:08:42;8.40;99.90
44705;DHT22;30431;48.520;9.046;2023-04-21T08:11:11;9.00;99.90
44705;DHT22;30431;48.520;9.046;2023-04-21T08:13:38;9.30;99.90
44705;DHT22;30431;48.520;9.046;2023-04-21T08:16:07;9.50;99.90
44705;DHT22;30431;48.520;9.046;2023-04-21T08:18:37;9.30;99.90
44705;DHT22;30431;48.520;9.046;2023-04-21T08:21:04;8.90;99.90
44705;DHT22;30431;48.520;9.046;2023-04-21T08:23:31;8.90;99.90
44705;DHT22;30431;48.520;9.046;2023-04-21T08:26:00;8.80;99.90
44705;DHT22;30431;48.520;9.046;2023-04-21T08:28:27;8.60;99.90
44705;DHT22;30431;48.520;9.046;2023-04-21T08:30:54;8.20;99.90
44705;DHT22;30431;48.520;9.046;2023-04-21T08:33:21;8.30;99.90
44705;DHT22;30431;48.520;9.046;2023-04-21T08:35:48;8.20;99.90
44705;DHT22;30431;48.520;9.046;2023-04-21T08:38:29;8.30;99.90
44705;DHT22;30431;48.520;9.046;2023-04-21T08:40:57;8.30;99.90
44705;DHT22;30431;48.520;9.046;2023-04-21T08:43:25;8.30;99.90
44705;DHT22;30431;48.520;9.046;2023-04-21T08:45:52;8.40;99.90
44705;DHT22;30431;48.520;9.046;2023-04-21T08:48:22;8.50;99.90
44705;DHT22;30431;48.520;9.046;2023-04-21T08:50:49;8.50;99.90
44705;DHT22;30431;48.520;9.046;2023-04-21T08:53:16;8.60;99.90
44705;DHT22;30431;48.520;9.046;2023-04-21T08:55:44;8.80;99.90
44705;DHT22;30431;48.520;9.046;2023-04-21T08:58:16;8.90;99.90
44705;DHT22;30431;48.520;9.046;2023-04-21T09:00:46;9.10;99.90
44705;DHT22;30431;48.520;9.046;2023-04-21T09:03:13;9.20;99.90
44705;DHT22;30431;48.520;9.046;2023-04-21T09:05:57;9.30;99.90
44705;DHT22;30431;48.520;9.046;2023-04-21T09:08:25;9.30;99.90
44705;DHT22;30431;48.520;9.046;2023-04-21T09:10:54;9.50;99.90
44705;DHT22;30431;48.520;9.046;2023-04-21T09:13:29;9.60;99.90
44705;DHT22;30431;48.520;9.046;2023-04-21T09:15:57;9.70;99.90
44705;DHT22;30431;48.520;9.046;2023-04-21T09:18:27;9.80;99.90
44705;DHT22;30431;48.520;9.046;2023-04-21T09:23:54;10.10;99.90
44705;DHT22;30431;48.520;9.046;2023-04-21T09:26:21;10.30;99.90
44705;DHT22;30431;48.520;9.046;2023-04-21T09:28:49;10.40;99.90
44705;DHT22;30431;48.520;9.046;2023-04-21T09:31:20;10.50;99.90
44705;DHT22;30431;48.520;9.046;2023-04-21T09:33:48;10.70;99.90
44705;DHT22;30431;48.520;9.046;2023-04-21T09:36:19;10.80;99.90
44705;DHT22;30431;48.520;9.046;2023-04-21T09:38:48;11.00;99.90
44705;DHT22;30431;48.520;9.046;2023-04-21T09:41:18;10.90;99.90
44705;DHT22;30431;48.520;9.046;2023-04-21T09:43:47;11.10;99.90
44705;DHT22;30431;48.520;9.046;2023-04-21T09:46:17;11.20;99.90
44705;DHT22;30431;48.520;9.046;2023-04-21T09:48:47;11.40;99.90
44705;DHT22;30431;48.520;9.046;2023-04-21T09:51:15;11.60;99.90
44705;DHT22;30431;48.520;9.046;2023-04-21T09:53:45;11.70;99.90
44705;DHT22;30431;48.520;9.046;2023-04-21T09:56:15;11.90;99.90
44705;DHT22;30431;48.520;9.046;2023-04-21T09:58:45;12.00;99.90
44705;DHT22;30431;48.520;9.046;2023-04-21T10:01:18;11.90;99.90
44705;DHT22;30431;48.520;9.046;2023-04-21T10:03:47;11.90;99.90
44705;DHT22;30431;48.520;9.046;2023-04-21T10:06:15;12.00;99.90
44705;DHT22;30431;48.520;9.046;2023-04-21T10:08:42;12.10;99.90
44705;DHT22;30431;48.520;9.046;2023-04-21T10:11:12;12.20;99.90
44705;DHT22;30431;48.520;9.046;2023-04-21T10:13:39;12.30;99.90
44705;DHT22;30431;48.520;9.046;2023-04-21T10:16:07;12.50;99.90
44705;DHT22;30431;48.520;9.046;2023-04-21T10:18:41;12.60;99.90
44705;DHT22;30431;48.520;9.046;2023-04-21T10:21:09;12.70;99.90
44705;DHT22;30431;48.520;9.046;2023-04-21T10:23:45;12.80;99.90
44705;DHT22;30431;48.520;9.046;2023-04-21T10:26:17;12.90;99.90
44705;DHT22;30431;48.520;9.046;2023-04-21T10:31:18;13.10;99.90
44705;DHT22;30431;48.520;9.046;2023-04-21T10:36:32;13.30;99.90
44705;DHT22;30431;48.520;9.046;2023-04-21T10:39:00;13.40;99.90
44705;DHT22;30431;48.520;9.046;2023-04-21T10:41:31;13.50;99.90
44705;DHT22;30431;48.520;9.046;2023-04-21T10:44:13;13.70;99.90
44705;DHT22;30431;48.520;9.046;2023-04-21T10:46:45;13.80;99.90
44705;DHT22;30431;48.520;9.046;2023-04-21T10:49:25;14.00;99.90
44705;DHT22;30431;48.520;9.046;2023-04-21T10:54:42;14.20;99.90
44705;DHT22;30431;48.520;9.046;2023-04-21T10:57:12;14.30;99.90
44705;DHT22;30431;48.520;9.046;2023-04-21T10:59:39;14.30;99.90
44705;DHT22;30431;48.520;9.046;2023-04-21T11:02:10;14.30;99.90
44705;DHT22;30431;48.520;9.046;2023-04-21T11:04:38;14.30;99.90
44705;DHT22;30431;48.520;9.046;2023-04-21T11:07:11;14.40;99.90
44705;DHT22;30431;48.520;9.046;2023-04-21T11:09:39;14.60;99.90
44705;DHT22;30431;48.520;9.046;2023-04-21T11:12:07;14.60;99.90
44705;DHT22;30431;48.520;9.046;2023-04-21T11:14:35;14.70;99.90
44705;DHT22;30431;48.520;9.046;2023-04-21T11:17:03;14.90;99.90
44705;DHT22;30431;48.520;9.046;2023-04-21T11:19:33;14.90;99.90
44705;DHT22;30431;48.520;9.046;2023-04-21T11:22:00;14.80;99.90
44705;DHT22;30431;48.520;9.046;2023-04-21T11:24:26;14.70;99.90
44705;DHT22;30431;48.520;9.046;2023-04-21T11:26:53;14.80;99.90
44705;DHT22;30431;48.520;9.046;2023-04-21T11:29:21;14.80;99.90
44705;DHT22;30431;48.520;9.046;2023-04-21T11:31:48;14.80;99.90
44705;DHT22;30431;48.520;9.046;2023-04-21T11:34:18;14.80;99.90
44705;DHT22;30431;48.520;9.046;2023-04-21T11:36:47;14.90;99.90
44705;DHT22;30431;48.520;9.046;2023-04-21T11:39:15;15.10;99.90
44705;DHT22;30431;48.520;9.046;2023-04-21T11:41:47;15.20;99.90
44705;DHT22;30431;48.520;9.046;2023-04-21T11:47:10;15.60;99.40
44705;DHT22;30431;48.520;9.046;2023-04-21T11:49:42;15.60;99.30
44705;DHT22;30431;48.520;9.046;2023-04-21T11:52:09;15.70;99.00
44705;DHT22;30431;48.520;9.046;2023-04-21T11:54:36;15.80;98.40
44705;DHT22;30431;48.520;9.046;2023-04-21T11:57:04;15.90;98.00
44705;DHT22;30431;48.520;9.046;2023-04-21T11:59:32;15.90;97.40
44705;DHT22;30431;48.520;9.046;2023-04-21T12:01:59;15.90;97.50
44705;DHT22;30431;48.520;9.046;2023-04-21T12:04:26;15.90;97.60
44705;DHT22;30431;48.520;9.046;2023-04-21T12:06:57;16.00;97.10
44705;DHT22;30431;48.520;9.046;2023-04-21T12:09:24;16.00;97.00
44705;DHT22;30431;48.520;9.046;2023-04-21T12:11:53;16.10;98.70
44705;DHT22;30431;48.520;9.046;2023-04-21T12:14:23;16.20;97.60
44705;DHT22;30431;48.520;9.046;2023-04-21T12:16:54;16.30;97.70
44705;DHT22;30431;48.520;9.046;2023-04-21T12:19:22;16.40;97.40
44705;DHT22;30431;48.520;9.046;2023-04-21T12:21:53;16.50;97.50
44705;DHT22;30431;48.520;9.046;2023-04-21T12:24:22;16.60;96.80
44705;DHT22;30431;48.520;9.046;2023-04-21T12:26:56;16.60;97.40
44705;DHT22;30431;48.520;9.046;2023-04-21T12:29:23;16.70;97.10
44705;DHT22;30431;48.520;9.046;2023-04-21T12:31:50;16.70;97.30
44705;DHT22;30431;48.520;9.046;2023-04-21T12:34:17;16.70;97.10
44705;DHT22;30431;48.520;9.046;2023-04-21T12:36:46;16.70;97.40
44705;DHT22;30431;48.520;9.046;2023-04-21T12:39:12;16.80;96.80
44705;DHT22;30431;48.520;9.046;2023-04-21T12:41:42;16.80;95.90
44705;DHT22;30431;48.520;9.046;2023-04-21T12:44:09;16.90;96.40
44705;DHT22;30431;48.520;9.046;2023-04-21T12:46:35;16.80;96.30
44705;DHT22;30431;48.520;9.046;2023-04-21T12:49:02;16.80;96.20
44705;DHT22;30431;48.520;9.046;2023-04-21T12:51:29;16.80;95.70
44705;DHT22;30431;48.520;9.046;2023-04-21T12:53:58;16.90;95.80
44705;DHT22;30431;48.520;9.046;2023-04-21T12:56:28;16.90;95.00
44705;DHT22;30431;48.520;9.046;2023-04-21T12:58:56;17.00;94.00
44705;DHT22;30431;48.520;9.046;2023-04-21T13:01:25;17.00;93.60
44705;DHT22;30431;48.520;9.046;2023-04-21T13:03:52;17.00;94.00
44705;DHT22;30431;48.520;9.046;2023-04-21T13:06:19;17.10;94.40
44705;DHT22;30431;48.520;9.046;2023-04-21T13:08:47;17.20;94.00
44705;DHT22;30431;48.520;9.046;2023-04-21T13:11:13;17.30;93.30
44705;DHT22;30431;48.520;9.046;2023-04-21T13:13:41;17.30;93.70
44705;DHT22;30431;48.520;9.046;2023-04-21T13:16:07;17.30;93.90
44705;DHT22;30431;48.520;9.046;2023-04-21T13:18:34;17.30;94.00
44705;DHT22;30431;48.520;9.046;2023-04-21T13:21:03;17.30;93.60
44705;DHT22;30431;48.520;9.046;2023-04-21T13:23:32;17.50;92.60
44705;DHT22;30431;48.520;9.046;2023-04-21T13:25:59;17.60;92.30
44705;DHT22;30431;48.520;9.046;2023-04-21T13:28:26;17.60;92.10
44705;DHT22;30431;48.520;9.046;2023-04-21T13:30:56;17.70;92.00
44705;DHT22;30431;48.520;9.046;2023-04-21T13:33:26;17.80;91.10
44705;DHT22;30431;48.520;9.046;2023-04-21T13:35:55;17.90;91.20
44705;DHT22;30431;48.520;9.046;2023-04-21T13:38:30;17.80;90.80
44705;DHT22;30431;48.520;9.046;2023-04-21T13:44:02;17.80;91.80
44705;DHT22;30431;48.520;9.046;2023-04-21T13:46:29;17.90;92.10
44705;DHT22;30431;48.520;9.046;2023-04-21T13:48:56;18.00;91.70
44705;DHT22;30431;48.520;9.046;2023-04-21T13:51:25;18.00;90.60
44705;DHT22;30431;48.520;9.046;2023-04-21T13:53:52;18.10;90.70
44705;DHT22;30431;48.520;9.046;2023-04-21T13:56:19;18.20;90.90
44705;DHT22;30431;48.520;9.046;2023-04-21T13:58:55;18.20;91.10
44705;DHT22;30431;48.520;9.046;2023-04-21T14:01:22;18.20;90.50
44705;DHT22;30431;48.520;9.046;2023-04-21T14:03:49;18.30;90.10
44705;DHT22;30431;48.520;9.046;2023-04-21T14:06:16;18.30;90.00
44705;DHT22;30431;48.520;9.046;2023-04-21T14:08:43;18.40;90.10
44705;DHT22;30431;48.520;9.046;2023-04-21T14:11:16;18.40;89.70
44705;DHT22;30431;48.520;9.046;2023-04-21T14:13:43;18.30;88.00
44705;DHT22;30431;48.520;9.046;2023-04-21T14:16:45;18.40;89.60
44705;DHT22;30431;48.520;9.046;2023-04-21T14:19:14;18.40;89.30
44705;DHT22;30431;48.520;9.046;2023-04-21T14:21:44;18.50;88.40
44705;DHT22;30431;48.520;9.046;2023-04-21T14:24:11;18.50;84.80
44705;DHT22;30431;48.520;9.046;2023-04-21T14:26:37;18.40;86.60
44705;DHT22;30431;48.520;9.046;2023-04-21T14:29:04;18.20;86.10
44705;DHT22;30431;48.520;9.046;2023-04-21T14:31:31;18.20;85.70
44705;DHT22;30431;48.520;9.046;2023-04-21T14:33:58;18.30;88.00
44705;DHT22;30431;48.520;9.046;2023-04-21T14:36:27;18.70;87.50
44705;DHT22;30431;48.520;9.046;2023-04-21T14:38:55;19.00;86.40
44705;DHT22;30431;48.520;9.046;2023-04-21T14:41:26;19.30;85.50
44705;DHT22;30431;48.520;9.046;2023-04-21T14:43:53;19.50;83.30
44705;DHT22;30431;48.520;9.046;2023-04-21T14:46:22;19.50;82.60
44705;DHT22;30431;48.520;9.046;2023-04-21T14:48:49;19.80;82.10
44705;DHT22;30431;48.520;9.046;2023-04-21T14:51:16;20.10;81.00
44705;DHT22;30431;48.520;9.046;2023-04-21T14:53:44;20.50;79.70
44705;DHT22;30431;48.520;9.046;2023-04-21T14:56:12;20.40;78.50
44705;DHT22;30431;48.520;9.046;2023-04-21T14:58:39;20.30;78.70
44705;DHT22;30431;48.520;9.046;2023-04-21T15:01:06;20.30;77.60
44705;DHT22;30431;48.520;9.046;2023-04-21T15:03:33;20.10;77.40
44705;DHT22;30431;48.520;9.046;2023-04-21T15:06:00;20.00;77.80
44705;DHT22;30431;48.520;9.046;2023-04-21T15:08:27;19.80;78.50
44705;DHT22;30431;48.520;9.046;2023-04-21T15:10:56;19.80;79.50
44705;DHT22;30431;48.520;9.046;2023-04-21T15:13:23;20.00;78.90
44705;DHT22;30431;48.520;9.046;2023-04-21T15:15:54;20.20;76.50
44705;DHT22;30431;48.520;9.046;2023-04-21T15:18:23;20.40;76.90
44705;DHT22;30431;48.520;9.046;2023-04-21T15:20:52;20.70;74.80
44705;DHT22;30431;48.520;9.046;2023-04-21T15:23:19;20.90;73.80
44705;DHT22;30431;48.520;9.046;2023-04-21T15:25:46;21.00;73.60
44705;DHT22;30431;48.520;9.046;2023-04-21T15:28:15;21.00;73.80
44705;DHT22;30431;48.520;9.046;2023-04-21T15:30:42;20.80;73.70
44705;DHT22;30431;48.520;9.046;2023-04-21T15:33:09;20.50;72.80
44705;DHT22;30431;48.520;9.046;2023-04-21T15:35:37;19.90;73.60
44705;DHT22;30431;48.520;9.046;2023-04-21T15:38:04;19.50;75.30
44705;DHT22;30431;48.520;9.046;2023-04-21T15:40:33;19.30;76.50
44705;DHT22;30431;48.520;9.046;2023-04-21T15:43:06;19.30;76.80
44705;DHT22;30431;48.520;9.046;2023-04-21T15:45:33;19.40;77.60
44705;DHT22;30431;48.520;9.046;2023-04-21T15:48:00;19.40;76.60
44705;DHT22;30431;48.520;9.046;2023-04-21T15:50:27;19.30;75.80
44705;DHT22;30431;48.520;9.046;2023-04-21T15:52:59;19.30;77.00
44705;DHT22;30431;48.520;9.046;2023-04-21T15:55:29;19.40;75.60
44705;DHT22;30431;48.520;9.046;2023-04-21T15:57:58;19.40;75.60
44705;DHT22;30431;48.520;9.046;2023-04-21T16:00:25;19.40;74.90
44705;DHT22;30431;48.520;9.046;2023-04-21T16:02:52;19.50;74.50
44705;DHT22;30431;48.520;9.046;2023-04-21T16:05:21;19.50;74.40
44705;DHT22;30431;48.520;9.046;2023-04-21T16:07:55;19.40;75.10